createdAt,value
2019-06-20T00:00:26.569Z,20.20
2019-06-20T00:05:46.224Z,20.10
2019-06-20T00:08:18.022Z,20.00
2019-06-20T00:11:03.524Z,20.10
2019-06-20T00:14:00.402Z,20.20
2019-06-20T00:26:22.428Z,19.80
2019-06-20T00:28:55.239Z,19.70
2019-06-20T00:31:24.332Z,19.70
2019-06-20T00:33:54.922Z,19.70
2019-06-20T00:36:39.158Z,19.80
2019-06-20T00:39:17.545Z,19.70
2019-06-20T00:45:28.945Z,19.70
2019-06-20T00:51:02.012Z,19.60
2019-06-20T00:57:03.894Z,19.70
2019-06-20T00:59:33.887Z,19.60
2019-06-20T01:03:13.340Z,19.60
2019-06-20T01:05:41.179Z,19.50
2019-06-20T01:08:09.753Z,19.40
2019-06-20T01:24:43.573Z,19.50
2019-06-20T02:13:45.539Z,19.40
2019-06-20T02:19:34.690Z,19.30
2019-06-20T02:21:58.870Z,19.40
2019-06-20T02:33:46.144Z,19.30
2019-06-20T02:37:42.198Z,19.30
2019-06-20T02:41:54.734Z,19.20
2019-06-20T02:44:29.123Z,19.20
2019-06-20T02:46:53.399Z,19.30
2019-06-20T02:49:33.627Z,19.30
2019-06-20T03:01:21.035Z,19.30
2019-06-20T03:03:54.652Z,19.30
2019-06-20T03:09:25.572Z,19.30
2019-06-20T03:12:00.327Z,19.30
2019-06-20T03:17:40.202Z,19.50
2019-06-20T03:20:18.127Z,19.60
2019-06-20T03:23:28.436Z,19.60
2019-06-20T03:31:51.160Z,19.70
2019-06-20T03:34:28.242Z,19.70
2019-06-20T03:37:01.427Z,19.80
2019-06-20T03:40:05.731Z,19.80
2019-06-20T03:42:27.939Z,19.80
2019-06-20T03:45:02.292Z,19.90
2019-06-20T03:56:38.802Z,20.20
2019-06-20T04:02:37.152Z,20.40
2019-06-20T04:08:38.603Z,20.30
2019-06-20T04:14:53.593Z,20.40
2019-06-20T05:53:46.954Z,22.40
2019-06-20T06:06:53.423Z,22.70
2019-06-20T06:09:23.879Z,22.90
2019-06-20T06:11:55.747Z,22.90
2019-06-20T06:14:26.401Z,22.80
2019-06-20T06:16:55.211Z,22.70
2019-06-20T06:19:27.074Z,22.70
2019-06-20T06:21:56.549Z,22.60
2019-06-20T06:24:25.489Z,22.60
2019-06-20T06:26:59.332Z,22.60
2019-06-20T06:29:25.057Z,22.40
2019-06-20T06:31:53.774Z,22.40
2019-06-20T06:34:23.704Z,22.40
2019-06-20T06:36:55.195Z,22.50
2019-06-20T06:39:24.064Z,22.50
2019-06-20T06:41:53.022Z,22.70
2019-06-20T06:44:22.474Z,22.50
2019-06-20T06:46:55.387Z,22.70
2019-06-20T06:49:22.157Z,22.60
2019-06-20T06:51:50.946Z,22.40
2019-06-20T06:54:20.037Z,22.30
2019-06-20T06:56:49.949Z,22.50
2019-06-20T06:59:18.850Z,22.30
2019-06-20T07:01:48.260Z,22.40
2019-06-20T07:04:17.025Z,22.40
2019-06-20T07:06:46.338Z,22.50
2019-06-20T07:09:15.265Z,22.70
2019-06-20T07:11:44.098Z,22.70
2019-06-20T07:14:12.854Z,22.70
2019-06-20T07:16:41.775Z,22.70
2019-06-20T07:19:10.686Z,22.80
2019-06-20T07:21:39.535Z,22.80
2019-06-20T07:24:08.374Z,22.90
2019-06-20T07:26:37.363Z,23.00
2019-06-20T07:29:06.235Z,22.80
2019-06-20T07:31:35.096Z,22.90
2019-06-20T07:34:04.238Z,23.00
2019-06-20T07:36:33.112Z,23.00
2019-06-20T07:39:02.033Z,23.20
2019-06-20T07:41:30.805Z,23.30
2019-06-20T07:43:59.611Z,23.60
2019-06-20T07:46:28.532Z,23.70
2019-06-20T07:48:57.239Z,23.90
2019-06-20T07:51:25.982Z,24.30
2019-06-20T07:53:54.787Z,24.60
2019-06-20T07:56:23.525Z,24.40
2019-06-20T07:59:27.391Z,24.80
2019-06-20T08:02:22.070Z,25.10
2019-06-20T08:04:46.796Z,25.00
2019-06-20T08:07:17.380Z,25.30
2019-06-20T08:09:46.303Z,25.80
2019-06-20T08:12:15.194Z,25.10
2019-06-20T08:14:44.133Z,24.90
2019-06-20T08:20:33.978Z,25.90
2019-06-20T08:23:02.925Z,25.90
2019-06-20T08:25:31.929Z,25.20
2019-06-20T08:28:02.338Z,24.70
2019-06-20T08:30:34.014Z,25.40
2019-06-20T08:33:07.454Z,25.80
2019-06-20T08:35:33.868Z,25.70
2019-06-20T08:38:07.073Z,25.90
2019-06-20T08:40:39.232Z,26.60
2019-06-20T08:43:08.340Z,26.10
2019-06-20T08:45:38.757Z,25.60
2019-06-20T08:48:09.502Z,25.70
2019-06-20T08:50:44.224Z,25.80
2019-06-20T08:53:13.288Z,25.90
2019-06-20T08:55:42.471Z,25.60
2019-06-20T08:58:16.008Z,25.90
2019-06-20T09:00:45.217Z,26.30
2019-06-20T09:03:15.720Z,26.20
2019-06-20T09:05:44.612Z,26.80
2019-06-20T09:08:13.527Z,26.50
2019-06-20T09:10:42.947Z,26.60
2019-06-20T09:13:13.179Z,27.00
2019-06-20T09:15:42.711Z,26.80
2019-06-20T09:18:12.087Z,27.00
2019-06-20T09:20:41.555Z,26.60
2019-06-20T09:23:13.596Z,26.30
2019-06-20T09:25:45.783Z,25.90
2019-06-20T09:28:55.652Z,25.40
2019-06-20T09:31:01.455Z,25.70
2019-06-20T09:33:30.715Z,25.50
2019-06-20T09:36:32.873Z,25.70
2019-06-20T09:38:41.239Z,25.60
2019-06-20T09:41:31.557Z,25.10
2019-06-20T09:44:03.633Z,25.50
2019-06-20T09:46:34.129Z,25.90
2019-06-20T09:49:04.826Z,25.80
2019-06-20T09:51:41.498Z,25.70
2019-06-20T09:57:10.387Z,24.70
2019-06-20T09:59:30.887Z,25.00
2019-06-20T10:02:04.701Z,25.40
2019-06-20T10:04:49.494Z,25.70
2019-06-20T10:07:27.415Z,25.40
2019-06-20T10:10:07.724Z,25.10
2019-06-20T10:12:34.924Z,25.20
2019-06-20T10:18:04.458Z,25.00
2019-06-20T10:20:41.256Z,25.20
2019-06-20T10:23:12.908Z,25.40
2019-06-20T10:28:36.798Z,26.70
2019-06-20T10:31:07.751Z,27.20
2019-06-20T10:33:41.457Z,27.50
2019-06-20T10:36:24.237Z,27.50
2019-06-20T10:39:14.336Z,26.30
2019-06-20T10:41:44.796Z,26.30
2019-06-20T10:44:14.505Z,26.70
2019-06-20T10:47:11.774Z,27.00
2019-06-20T10:49:33.160Z,26.80
2019-06-20T10:52:06.581Z,27.00
2019-06-20T10:54:41.817Z,27.10
2019-06-20T10:57:29.311Z,27.30
2019-06-20T11:00:05.441Z,27.90
2019-06-20T11:04:58.346Z,28.30
2019-06-20T11:13:00.673Z,28.40
2019-06-20T11:14:01.749Z,28.40
2019-06-20T11:15:31.100Z,28.20
2019-06-20T11:19:29.037Z,28.00
2019-06-20T11:20:55.452Z,27.70
2019-06-20T11:25:59.382Z,27.60
2019-06-20T11:28:42.946Z,27.20
2019-06-20T11:31:09.104Z,26.70
2019-06-20T11:33:52.164Z,27.10
2019-06-20T11:39:03.868Z,28.30
2019-06-20T11:58:47.113Z,26.40
2019-06-20T12:01:32.983Z,26.40
2019-06-20T12:03:55.354Z,26.70
2019-06-20T12:06:36.134Z,27.40
2019-06-20T12:09:13.492Z,27.80
2019-06-20T12:11:44.526Z,27.50
2019-06-20T12:14:13.477Z,27.70
2019-06-20T12:16:42.424Z,27.80
2019-06-20T12:19:11.809Z,28.10
2019-06-20T12:21:42.647Z,27.90
2019-06-20T12:24:11.289Z,28.30
2019-06-20T12:26:53.965Z,28.50
2019-06-20T12:29:22.997Z,27.30
2019-06-20T12:31:56.352Z,27.80
2019-06-20T12:34:26.146Z,28.10
2019-06-20T12:36:57.776Z,28.20
2019-06-20T12:39:52.370Z,28.40
2019-06-20T12:42:06.487Z,28.50
2019-06-20T12:45:13.217Z,28.50
2019-06-20T12:47:14.457Z,28.60
2019-06-20T12:50:34.691Z,28.50
2019-06-20T12:52:21.057Z,28.30
2019-06-20T12:54:53.579Z,28.40
2019-06-20T12:57:28.600Z,28.50
2019-06-20T12:59:59.124Z,29.10
2019-06-20T13:02:49.794Z,29.30
2019-06-20T13:05:12.757Z,28.90
2019-06-20T13:07:38.683Z,28.80
2019-06-20T13:10:11.170Z,28.70
2019-06-20T13:12:44.319Z,29.00
2019-06-20T13:15:14.179Z,29.20
2019-06-20T13:17:43.687Z,29.00
2019-06-20T13:20:15.473Z,28.70
2019-06-20T13:22:49.524Z,28.90
2019-06-20T13:25:18.787Z,28.90
2019-06-20T13:28:13.679Z,29.10
2019-06-20T13:30:31.370Z,29.10
2019-06-20T13:33:01.876Z,28.90
2019-06-20T13:35:41.976Z,28.70
2019-06-20T13:38:13.888Z,28.90
2019-06-20T13:40:49.368Z,29.30
2019-06-20T13:43:16.310Z,29.70
2019-06-20T13:49:34.390Z,29.20
2019-06-20T13:54:43.431Z,28.80
2019-06-20T13:57:55.617Z,28.60
2019-06-20T14:05:33.694Z,28.50
2019-06-20T14:10:58.278Z,28.40
2019-06-20T14:13:27.170Z,28.30
2019-06-20T14:15:55.961Z,28.40
2019-06-20T14:18:24.836Z,28.20
2019-06-20T14:20:55.164Z,28.10
2019-06-20T14:24:11.385Z,28.30
2019-06-20T14:26:25.895Z,28.00
2019-06-20T14:28:44.354Z,28.20
2019-06-20T14:31:13.397Z,28.40
2019-06-20T14:33:43.046Z,28.70
2019-06-20T14:36:12.967Z,28.90
2019-06-20T14:38:45.715Z,28.60
2019-06-20T14:41:14.321Z,28.80
2019-06-20T14:43:44.712Z,29.00
2019-06-20T14:46:18.508Z,29.20
2019-06-20T14:48:50.197Z,29.60
2019-06-20T14:51:26.195Z,29.70
2019-06-20T14:53:52.690Z,29.70
2019-06-20T14:56:21.794Z,29.60
2019-06-20T14:58:51.561Z,29.20
2019-06-20T15:01:28.667Z,29.50
2019-06-20T15:04:07.864Z,29.30
2019-06-20T15:06:36.751Z,28.90
2019-06-20T15:09:07.634Z,28.90
2019-06-20T15:11:54.960Z,29.00
2019-06-20T15:15:12.563Z,29.10
2019-06-20T15:33:12.248Z,30.10
2019-06-20T15:39:24.755Z,29.80
2019-06-20T15:55:22.065Z,30.00
2019-06-20T16:04:10.956Z,29.00
2019-06-20T16:06:57.096Z,28.50
2019-06-20T16:09:23.349Z,28.20
2019-06-20T16:11:58.728Z,28.20
2019-06-20T16:14:34.397Z,28.30
2019-06-20T16:17:13.471Z,28.40
2019-06-20T16:19:52.974Z,28.40
2019-06-20T16:22:26.545Z,28.30
2019-06-20T16:25:11.840Z,28.30
2019-06-20T16:27:48.520Z,28.30
2019-06-20T16:30:18.791Z,28.50
2019-06-20T16:32:50.196Z,28.50
2019-06-20T16:37:09.218Z,28.40
2019-06-20T16:38:05.198Z,28.30
2019-06-20T16:40:49.065Z,28.30
2019-06-20T16:43:18.077Z,28.20
2019-06-20T16:45:52.238Z,28.20
2019-06-20T16:48:27.210Z,28.40
2019-06-20T16:50:51.903Z,28.40
2019-06-20T16:53:36.595Z,28.50
2019-06-20T16:56:01.496Z,28.60
2019-06-20T16:58:30.400Z,28.50
2019-06-20T17:01:00.871Z,28.40
2019-06-20T17:05:26.092Z,28.30
2019-06-20T17:06:29.986Z,28.40
2019-06-20T17:09:02.113Z,28.40
2019-06-20T17:15:00.262Z,28.30
2019-06-20T17:17:30.639Z,28.10
2019-06-20T17:19:59.951Z,27.90
2019-06-20T17:22:29.954Z,27.80
2019-06-20T17:24:58.895Z,27.70
2019-06-20T17:27:28.222Z,27.70
2019-06-20T17:30:02.032Z,27.70
2019-06-20T17:32:34.787Z,27.80
2019-06-20T17:35:05.264Z,27.70
2019-06-20T17:37:36.162Z,27.90
2019-06-20T17:40:09.658Z,27.70
2019-06-20T17:42:50.538Z,27.80
2019-06-20T17:45:24.570Z,27.70
2019-06-20T17:47:57.483Z,27.70
2019-06-20T17:50:34.517Z,27.60
2019-06-20T17:53:03.707Z,27.50
2019-06-20T17:55:38.466Z,27.40
2019-06-20T17:58:28.136Z,27.30
2019-06-20T18:01:00.558Z,27.20
2019-06-20T18:03:30.901Z,27.20
2019-06-20T18:05:59.893Z,27.20
2019-06-20T18:08:34.174Z,27.20
2019-06-20T18:11:05.099Z,27.10
2019-06-20T18:13:33.736Z,27.10
2019-06-20T18:16:02.727Z,27.00
2019-06-20T18:18:34.157Z,26.90
2019-06-20T18:21:02.996Z,26.90
2019-06-20T18:23:31.868Z,26.80
2019-06-20T18:26:03.683Z,26.60
2019-06-20T18:28:32.722Z,26.50
2019-06-20T18:31:01.997Z,26.30
2019-06-20T18:33:30.768Z,26.20
2019-06-20T18:36:01.036Z,26.20
2019-06-20T18:38:31.356Z,26.30
2019-06-20T18:41:00.365Z,26.20
2019-06-20T18:43:29.344Z,26.10
2019-06-20T18:45:58.145Z,26.00
2019-06-20T18:48:31.705Z,26.00
2019-06-20T18:51:09.693Z,25.90
2019-06-20T18:53:38.744Z,25.70
2019-06-20T18:56:07.517Z,25.70
2019-06-20T18:58:36.240Z,25.70
2019-06-20T19:01:05.285Z,25.70
2019-06-20T19:03:39.174Z,25.70
2019-06-20T19:06:08.001Z,25.70
2019-06-20T19:09:06.570Z,25.60
2019-06-20T19:11:10.957Z,25.60
2019-06-20T19:13:41.578Z,25.60
2019-06-20T19:16:13.401Z,25.50
2019-06-20T19:18:42.295Z,25.60
2019-06-20T19:21:11.430Z,25.60
2019-06-20T19:23:40.206Z,25.50
2019-06-20T19:26:10.710Z,25.40
2019-06-20T19:28:39.488Z,25.40
2019-06-20T19:31:08.298Z,25.40
2019-06-20T19:33:37.071Z,25.20
2019-06-20T19:36:08.994Z,25.10
2019-06-20T19:38:39.438Z,24.90
2019-06-20T19:41:08.595Z,24.70
2019-06-20T19:43:37.444Z,24.80
2019-06-20T19:46:06.258Z,24.70
2019-06-20T19:48:38.268Z,24.70
2019-06-20T19:51:07.215Z,24.60
2019-06-20T19:53:36.062Z,24.50
2019-06-20T19:56:04.924Z,24.50
2019-06-20T19:58:41.712Z,24.50
2019-06-20T20:01:14.550Z,24.40
2019-06-20T20:03:47.001Z,24.30
2019-06-20T20:06:13.349Z,24.30
2019-06-20T20:08:44.328Z,24.20
2019-06-20T20:11:12.885Z,24.20
2019-06-20T20:13:43.585Z,24.20
2019-06-20T20:16:12.364Z,24.20
2019-06-20T20:18:58.867Z,24.20
2019-06-20T20:21:20.855Z,24.10
2019-06-20T20:23:53.338Z,24.10
2019-06-20T20:26:23.740Z,24.00
2019-06-20T20:28:52.675Z,24.20
2019-06-20T20:31:21.522Z,24.30
2019-06-20T20:33:50.310Z,24.30
2019-06-20T20:36:24.901Z,24.40
2019-06-20T20:38:49.649Z,24.20
2019-06-20T20:41:18.859Z,24.10
2019-06-20T20:46:44.453Z,23.90
2019-06-20T20:50:27.027Z,23.80
2019-06-20T20:51:51.034Z,23.80
2019-06-20T20:54:19.997Z,23.80
2019-06-20T20:56:50.522Z,23.70
2019-06-20T20:59:19.578Z,23.70
2019-06-20T21:01:49.326Z,23.70
2019-06-20T21:04:18.087Z,23.60
2019-06-20T21:06:47.011Z,23.60
2019-06-20T21:09:19.561Z,23.60
2019-06-20T21:12:07.237Z,23.60
2019-06-20T21:14:49.522Z,23.80
2019-06-20T21:17:19.952Z,23.70
2019-06-20T21:19:51.143Z,23.80
2019-06-20T21:22:31.113Z,23.60
2019-06-20T21:25:06.040Z,23.30
2019-06-20T21:30:32.032Z,23.20
2019-06-20T21:35:10.996Z,23.30
2019-06-20T21:35:41.087Z,23.30
2019-06-20T22:15:01.510Z,23.40
2019-06-20T22:28:41.963Z,23.00
2019-06-20T22:32:27.240Z,22.40
2019-06-20T23:12:04.625Z,21.60
2019-06-20T23:26:57.520Z,20.40
2019-06-20T23:30:12.746Z,20.30
2019-06-20T23:32:20.081Z,20.30
2019-06-20T23:44:55.834Z,20.20
2019-06-20T23:46:11.261Z,20.20
2019-06-20T23:48:50.731Z,20.20
